createdAt,value
2022-08-17T00:01:37.871Z,5.20
2022-08-17T00:04:19.213Z,4.93
2022-08-17T00:06:46.191Z,4.50
2022-08-17T00:09:18.352Z,4.70
2022-08-17T00:12:44.419Z,5.38
2022-08-17T00:14:33.967Z,4.93
2022-08-17T00:17:00.754Z,5.32
2022-08-17T00:19:27.289Z,5.75
2022-08-17T00:22:31.004Z,4.40
2022-08-17T00:24:44.100Z,4.55
2022-08-17T00:27:17.321Z,9.25
2022-08-17T00:29:45.773Z,4.97
2022-08-17T00:33:15.778Z,4.60
2022-08-17T00:35:00.631Z,4.22
2022-08-17T00:37:27.587Z,6.63
2022-08-17T00:39:54.217Z,5.05
2022-08-17T00:42:20.949Z,8.40
2022-08-17T00:44:47.672Z,7.07
2022-08-17T00:47:14.321Z,5.22
2022-08-17T00:49:40.885Z,5.30
2022-08-17T00:52:15.587Z,5.43
2022-08-17T00:54:46.944Z,6.60
2022-08-17T00:57:24.949Z,5.75
2022-08-17T01:00:07.611Z,5.30
2022-08-17T01:02:42.949Z,4.50
2022-08-17T01:05:14.772Z,8.38
2022-08-17T01:07:42.867Z,8.00
2022-08-17T01:10:58.158Z,6.68
2022-08-17T01:13:02.507Z,6.57
2022-08-17T01:15:36.437Z,6.38
2022-08-17T01:18:08.254Z,6.15
2022-08-17T01:20:47.827Z,5.88
2022-08-17T01:23:21.004Z,5.95
2022-08-17T01:25:54.133Z,5.25
2022-08-17T01:28:52.832Z,7.28
2022-08-17T01:31:09.687Z,7.32
2022-08-17T01:33:36.800Z,5.55
2022-08-17T01:36:06.925Z,7.10
2022-08-17T01:38:37.748Z,6.00
2022-08-17T01:41:12.633Z,10.82
2022-08-17T01:43:49.540Z,5.28
2022-08-17T01:46:28.006Z,5.78
2022-08-17T01:48:57.532Z,7.45
2022-08-17T01:51:33.213Z,6.22
2022-08-17T01:54:05.787Z,5.85
2022-08-17T01:56:35.417Z,6.97
2022-08-17T01:59:02.840Z,7.25
2022-08-17T02:01:31.825Z,5.90
2022-08-17T02:04:00.754Z,5.72
2022-08-17T02:06:45.175Z,7.00
2022-08-17T02:09:22.336Z,6.40
2022-08-17T02:11:53.429Z,5.78
2022-08-17T02:14:20.943Z,6.70
2022-08-17T02:16:47.476Z,7.30
2022-08-17T02:19:15.927Z,6.35
2022-08-17T02:21:47.042Z,6.72
2022-08-17T02:24:58.413Z,5.97
2022-08-17T02:27:06.115Z,6.60
2022-08-17T02:29:32.733Z,6.13
2022-08-17T02:32:00.129Z,6.07
2022-08-17T02:34:27.439Z,7.07
2022-08-17T02:36:54.213Z,5.97
2022-08-17T02:39:20.709Z,5.47
2022-08-17T02:41:47.417Z,6.00
2022-08-17T02:44:39.670Z,8.27
2022-08-17T02:47:04.106Z,5.97
2022-08-17T02:49:30.907Z,5.88
2022-08-17T02:51:58.487Z,7.40
2022-08-17T02:54:40.154Z,6.03
2022-08-17T02:57:07.606Z,6.38
2022-08-17T02:59:34.252Z,9.48
2022-08-17T03:02:03.281Z,7.05
2022-08-17T03:04:33.788Z,6.97
2022-08-17T03:07:02.269Z,6.47
2022-08-17T03:09:28.930Z,7.53
2022-08-17T03:11:56.118Z,6.00
2022-08-17T03:14:26.039Z,5.50
2022-08-17T03:16:53.011Z,6.38
2022-08-17T03:19:19.471Z,7.18
2022-08-17T03:21:45.931Z,6.70
2022-08-17T03:24:21.661Z,9.20
2022-08-17T03:26:55.794Z,8.05
2022-08-17T03:29:22.437Z,9.27
2022-08-17T03:31:49.875Z,6.93
2022-08-17T03:34:17.302Z,6.60
2022-08-17T03:36:44.347Z,7.30
2022-08-17T03:39:10.973Z,6.28
2022-08-17T03:41:39.120Z,6.55
2022-08-17T03:44:05.808Z,5.20
2022-08-17T03:46:51.522Z,7.28
2022-08-17T03:49:36.746Z,9.07
2022-08-17T03:52:23.060Z,7.18
2022-08-17T03:55:21.659Z,5.13
2022-08-17T03:58:02.589Z,5.68
2022-08-17T04:00:29.093Z,6.68
2022-08-17T04:02:55.729Z,6.75
2022-08-17T04:05:22.224Z,6.68
2022-08-17T04:07:48.744Z,7.90
2022-08-17T04:10:15.513Z,5.47
2022-08-17T04:12:51.154Z,5.53
2022-08-17T04:15:18.517Z,5.32
2022-08-17T04:17:45.737Z,6.10
2022-08-17T04:20:15.026Z,5.35
2022-08-17T04:22:58.743Z,5.05
2022-08-17T04:25:27.334Z,4.53
2022-08-17T04:27:55.312Z,5.20
2022-08-17T04:30:22.615Z,6.57
2022-08-17T04:33:06.430Z,5.07
2022-08-17T04:35:47.206Z,5.05
2022-08-17T04:38:20.814Z,4.82
2022-08-17T04:41:07.372Z,6.38
2022-08-17T04:43:35.661Z,5.18
2022-08-17T04:46:13.431Z,5.97
2022-08-17T04:48:43.193Z,4.60
2022-08-17T04:51:25.214Z,5.88
2022-08-17T04:53:56.172Z,7.38
2022-08-17T04:56:25.020Z,7.13
2022-08-17T04:58:54.423Z,5.75
2022-08-17T05:01:22.983Z,5.57
2022-08-17T05:03:51.800Z,7.03
2022-08-17T05:06:18.275Z,8.82
2022-08-17T05:08:44.833Z,6.10
2022-08-17T05:11:11.336Z,6.90
2022-08-17T05:13:37.856Z,14.60
2022-08-17T05:16:04.906Z,6.30
2022-08-17T05:18:32.018Z,6.63
2022-08-17T05:20:59.002Z,6.57
2022-08-17T05:23:27.324Z,10.50
2022-08-17T05:26:19.865Z,8.35
2022-08-17T05:28:59.672Z,9.27
2022-08-17T05:31:30.119Z,7.72
2022-08-17T05:33:57.178Z,6.97
2022-08-17T05:36:43.723Z,7.50
2022-08-17T05:39:15.720Z,10.70
2022-08-17T05:41:45.636Z,6.78
2022-08-17T05:44:12.098Z,7.70
2022-08-17T05:46:43.579Z,10.30
2022-08-17T05:49:11.073Z,7.30
2022-08-17T05:52:02.606Z,8.07
2022-08-17T05:54:47.827Z,7.03
2022-08-17T05:57:21.039Z,7.88
2022-08-17T06:00:04.499Z,10.93
2022-08-17T06:02:47.713Z,7.38
2022-08-17T06:05:14.515Z,7.88
2022-08-17T06:08:00.102Z,8.82
2022-08-17T06:11:01.869Z,6.82
2022-08-17T06:13:39.105Z,8.90
2022-08-17T06:16:33.134Z,7.07
2022-08-17T06:19:03.259Z,8.82
2022-08-17T06:21:38.787Z,8.98
2022-08-17T06:24:15.905Z,13.52
2022-08-17T06:26:45.271Z,11.50
2022-08-17T06:29:35.313Z,7.97
2022-08-17T06:32:03.111Z,5.95
2022-08-17T06:34:29.853Z,7.03
2022-08-17T06:37:15.576Z,7.72
2022-08-17T06:40:07.371Z,6.05
2022-08-17T06:43:06.734Z,7.65
2022-08-17T06:46:07.482Z,8.55
2022-08-17T06:48:54.176Z,9.82
2022-08-17T06:51:30.014Z,7.95
2022-08-17T06:54:38.177Z,9.50
2022-08-17T06:57:40.162Z,7.78
2022-08-17T07:00:17.736Z,6.90
2022-08-17T07:03:07.902Z,8.45
2022-08-17T07:05:44.264Z,6.65
2022-08-17T07:08:19.724Z,8.43
2022-08-17T07:11:01.069Z,6.78
2022-08-17T07:13:49.300Z,5.50
2022-08-17T07:16:31.430Z,5.95
2022-08-17T07:18:59.910Z,9.05
2022-08-17T07:21:51.142Z,10.43
2022-08-17T07:24:37.169Z,6.60
2022-08-17T07:27:16.067Z,8.55
2022-08-17T07:29:56.656Z,5.88
2022-08-17T07:32:31.822Z,4.20
2022-08-17T07:35:11.195Z,13.32
2022-08-17T07:37:44.835Z,5.65
2022-08-17T07:40:17.386Z,6.55
2022-08-17T07:43:03.251Z,7.30
2022-08-17T07:45:50.594Z,6.55
2022-08-17T07:48:22.078Z,8.90
2022-08-17T07:50:50.600Z,8.15
2022-08-17T07:53:20.704Z,6.85
2022-08-17T07:55:48.758Z,6.03
2022-08-17T07:58:18.194Z,7.53
2022-08-17T08:00:46.086Z,7.40
2022-08-17T08:03:21.696Z,6.88
2022-08-17T08:05:57.558Z,8.52
2022-08-17T08:08:29.041Z,5.88
2022-08-17T08:11:28.377Z,6.07
2022-08-17T08:13:54.897Z,5.70
2022-08-17T08:16:29.678Z,5.40
2022-08-17T08:18:59.809Z,5.90
2022-08-17T08:21:41.738Z,7.28
2022-08-17T08:24:18.723Z,5.57
2022-08-17T08:27:12.240Z,5.38
2022-08-17T08:30:06.647Z,7.35
2022-08-17T08:32:52.190Z,4.65
2022-08-17T08:35:36.934Z,4.80
2022-08-17T08:38:18.799Z,6.70
2022-08-17T08:40:54.511Z,5.18
2022-08-17T08:43:43.135Z,6.32
2022-08-17T08:46:30.781Z,6.30
2022-08-17T08:49:11.978Z,5.80
2022-08-17T08:52:08.438Z,5.28
2022-08-17T08:54:52.219Z,5.57
2022-08-17T08:57:34.322Z,5.25
2022-08-17T09:00:03.974Z,7.50
2022-08-17T09:02:34.689Z,6.00
2022-08-17T09:05:18.331Z,4.45
2022-08-17T09:08:13.897Z,5.90
2022-08-17T09:11:03.383Z,5.80
2022-08-17T09:13:54.138Z,7.10
2022-08-17T09:16:53.517Z,6.30
2022-08-17T09:19:38.128Z,5.43
2022-08-17T09:22:31.504Z,5.30
2022-08-17T09:25:07.400Z,6.35
2022-08-17T09:27:50.420Z,5.22
2022-08-17T09:30:18.511Z,8.32
2022-08-17T09:32:56.852Z,7.70
2022-08-17T09:35:33.769Z,7.85
2022-08-17T09:38:39.398Z,7.55
2022-08-17T09:41:13.801Z,5.43
2022-08-17T09:44:23.354Z,5.47
2022-08-17T09:47:02.275Z,5.70
2022-08-17T09:49:33.739Z,10.93
2022-08-17T09:52:30.682Z,6.13
2022-08-17T09:55:00.030Z,11.48
2022-08-17T09:57:39.749Z,9.00
2022-08-17T10:00:15.811Z,7.85
2022-08-17T10:03:01.763Z,8.82
2022-08-17T10:05:40.474Z,6.32
2022-08-17T10:08:30.046Z,7.57
2022-08-17T10:11:17.393Z,9.35
2022-08-17T10:13:53.534Z,7.70
2022-08-17T10:16:49.254Z,7.32
2022-08-17T10:19:30.880Z,6.93
2022-08-17T10:22:34.933Z,11.95
2022-08-17T10:25:37.621Z,6.35
2022-08-17T10:28:19.895Z,6.38
2022-08-17T10:30:51.854Z,5.88
2022-08-17T10:33:32.614Z,5.18
2022-08-17T10:36:46.336Z,6.20
2022-08-17T10:39:51.889Z,7.68
2022-08-17T10:42:32.441Z,8.40
2022-08-17T10:45:26.517Z,9.65
2022-08-17T10:48:05.312Z,10.00
2022-08-17T10:50:47.903Z,8.45
2022-08-17T10:53:33.059Z,8.05
2022-08-17T10:56:11.861Z,7.88
2022-08-17T10:59:01.024Z,7.68
2022-08-17T11:01:42.060Z,9.68
2022-08-17T11:04:52.188Z,10.07
2022-08-17T11:07:21.643Z,7.75
2022-08-17T11:10:07.013Z,11.05
2022-08-17T11:12:55.171Z,10.52
2022-08-17T11:15:42.123Z,7.70
2022-08-17T11:18:14.647Z,8.30
2022-08-17T11:21:01.355Z,11.07
2022-08-17T11:24:06.019Z,9.80
2022-08-17T11:26:35.726Z,9.10
2022-08-17T11:29:09.393Z,12.45
2022-08-17T11:31:43.651Z,13.30
2022-08-17T11:34:31.609Z,10.20
2022-08-17T11:36:58.138Z,9.00
2022-08-17T11:39:50.176Z,9.57
2022-08-17T11:42:36.207Z,15.52
2022-08-17T11:45:34.919Z,8.52
2022-08-17T11:48:28.437Z,10.85
2022-08-17T11:51:18.263Z,10.95
2022-08-17T11:53:45.791Z,11.25
2022-08-17T11:56:41.090Z,13.57
2022-08-17T11:59:44.825Z,12.02
2022-08-17T12:02:32.580Z,16.80
2022-08-17T12:05:12.419Z,12.45
2022-08-17T12:08:05.445Z,13.40
2022-08-17T12:10:36.556Z,12.75
2022-08-17T12:13:15.735Z,12.95
2022-08-17T12:15:48.752Z,14.95
2022-08-17T12:18:24.449Z,13.57
2022-08-17T12:21:28.631Z,12.75
2022-08-17T12:24:06.479Z,14.00
2022-08-17T12:26:35.760Z,12.70
2022-08-17T12:29:18.228Z,13.40
2022-08-17T12:32:05.634Z,15.15
2022-08-17T12:34:38.476Z,13.80
2022-08-17T12:37:12.773Z,12.82
2022-08-17T12:39:48.659Z,16.20
2022-08-17T12:42:24.302Z,15.27
2022-08-17T12:44:50.947Z,12.88
2022-08-17T12:47:22.325Z,12.85
2022-08-17T12:49:52.188Z,10.88
2022-08-17T12:52:25.870Z,13.55
2022-08-17T12:55:00.430Z,11.05
2022-08-17T12:57:34.771Z,12.80
2022-08-17T13:00:10.070Z,11.32
2022-08-17T13:02:44.089Z,14.02
2022-08-17T13:05:27.606Z,12.40
2022-08-17T13:07:55.936Z,11.98
2022-08-17T13:10:30.034Z,10.95
2022-08-17T13:13:04.699Z,12.73
2022-08-17T13:15:38.118Z,13.32
2022-08-17T13:18:40.287Z,11.65
2022-08-17T13:21:30.357Z,10.70
2022-08-17T13:24:01.423Z,11.32
2022-08-17T13:26:36.862Z,11.02
2022-08-17T13:29:17.315Z,11.32
2022-08-17T13:31:52.344Z,15.10
2022-08-17T13:34:37.516Z,13.90
2022-08-17T13:37:30.087Z,11.68
2022-08-17T13:40:10.653Z,12.43
2022-08-17T13:42:51.859Z,13.48
2022-08-17T13:45:32.328Z,14.80
2022-08-17T13:48:11.888Z,11.70
2022-08-17T13:51:07.099Z,12.02
2022-08-17T13:53:36.540Z,10.88
2022-08-17T13:56:07.455Z,11.98
2022-08-17T13:58:58.341Z,11.93
2022-08-17T14:01:34.908Z,15.88
2022-08-17T14:04:07.811Z,12.38
2022-08-17T14:06:59.327Z,15.77
2022-08-17T14:09:36.857Z,15.18
2022-08-17T14:12:09.222Z,13.13
2022-08-17T14:14:36.315Z,13.45
2022-08-17T14:17:04.000Z,19.35
2022-08-17T14:19:30.609Z,13.07
2022-08-17T14:21:58.815Z,14.02
2022-08-17T14:24:35.093Z,16.20
2022-08-17T14:27:03.994Z,17.13
2022-08-17T14:29:32.437Z,19.05
2022-08-17T14:32:04.245Z,17.50
2022-08-17T14:34:30.796Z,16.20
2022-08-17T14:36:57.351Z,14.07
2022-08-17T14:39:24.063Z,14.38
2022-08-17T14:41:50.654Z,13.95
2022-08-17T14:44:17.193Z,15.43
2022-08-17T14:46:44.898Z,12.60
2022-08-17T14:49:12.894Z,17.38
2022-08-17T14:51:44.182Z,15.50
2022-08-17T14:54:12.081Z,16.63
2022-08-17T14:57:02.861Z,15.50
2022-08-17T14:59:45.345Z,16.92
2022-08-17T15:02:13.209Z,16.83
2022-08-17T15:04:44.926Z,13.98
2022-08-17T15:07:12.273Z,12.98
2022-08-17T15:09:39.082Z,13.73
2022-08-17T15:12:09.479Z,18.00
2022-08-17T15:14:36.365Z,17.42
2022-08-17T15:17:03.719Z,16.73
2022-08-17T15:19:30.529Z,15.02
2022-08-17T15:21:57.200Z,15.15
2022-08-17T15:24:23.627Z,15.05
2022-08-17T15:26:51.332Z,15.88
2022-08-17T15:29:17.790Z,17.52
2022-08-17T15:31:44.395Z,16.63
2022-08-17T15:34:11.005Z,14.20
2022-08-17T15:36:37.966Z,19.70
2022-08-17T15:39:07.826Z,15.32
2022-08-17T15:41:34.531Z,14.65
2022-08-17T15:44:00.993Z,14.02
2022-08-17T15:46:28.396Z,14.23
2022-08-17T15:48:59.601Z,15.73
2022-08-17T15:51:34.149Z,16.63
2022-08-17T15:54:19.377Z,17.75
2022-08-17T15:56:50.600Z,14.82
2022-08-17T15:59:17.261Z,15.15
2022-08-17T16:02:29.880Z,14.18
2022-08-17T16:04:31.909Z,16.00
2022-08-17T16:06:59.835Z,14.27
2022-08-17T16:09:27.001Z,16.85
2022-08-17T16:11:55.634Z,16.42
2022-08-17T16:14:24.070Z,15.80
2022-08-17T16:16:51.006Z,25.00
2022-08-17T16:19:17.570Z,15.40
2022-08-17T16:21:44.014Z,15.93
2022-08-17T16:24:12.800Z,12.52
2022-08-17T16:26:40.402Z,14.38
2022-08-17T16:29:07.730Z,18.73
2022-08-17T16:31:35.951Z,12.98
2022-08-17T16:34:16.124Z,12.13
2022-08-17T16:36:54.762Z,12.95
2022-08-17T16:39:23.105Z,14.02
2022-08-17T16:41:50.255Z,12.27
2022-08-17T16:44:18.897Z,13.70
2022-08-17T16:46:47.242Z,12.00
2022-08-17T16:49:36.355Z,11.38
2022-08-17T16:52:03.275Z,14.10
2022-08-17T16:54:30.253Z,12.38
2022-08-17T16:56:56.753Z,12.10
2022-08-17T16:59:30.883Z,10.63
2022-08-17T17:02:10.698Z,13.13
2022-08-17T17:04:51.832Z,10.90
2022-08-17T17:07:45.766Z,11.90
2022-08-17T17:10:16.097Z,11.50
2022-08-17T17:13:01.019Z,14.90
2022-08-17T17:15:51.728Z,10.50
2022-08-17T17:18:20.926Z,10.18
2022-08-17T17:20:56.442Z,11.68
2022-08-17T17:23:59.353Z,9.90
2022-08-17T17:26:38.171Z,12.05
2022-08-17T17:29:18.302Z,9.18
2022-08-17T17:31:56.742Z,10.85
2022-08-17T17:34:25.745Z,11.07
2022-08-17T17:36:57.823Z,9.85
2022-08-17T17:39:46.303Z,10.57
2022-08-17T17:42:20.006Z,9.13
2022-08-17T17:44:54.082Z,14.43
2022-08-17T17:47:21.359Z,9.23
2022-08-17T17:49:50.727Z,10.00
2022-08-17T17:52:32.097Z,11.93
2022-08-17T17:55:03.235Z,10.40
2022-08-17T17:57:50.239Z,9.57
2022-08-17T18:00:43.189Z,13.55
2022-08-17T18:03:19.219Z,11.02
2022-08-17T18:06:05.548Z,10.90
2022-08-17T18:08:46.419Z,10.82
2022-08-17T18:11:39.796Z,12.63
2022-08-17T18:14:18.353Z,11.05
2022-08-17T18:16:46.287Z,11.80
2022-08-17T18:19:21.348Z,8.85
2022-08-17T18:21:54.608Z,12.27
2022-08-17T18:24:33.693Z,11.25
2022-08-17T18:27:02.627Z,10.15
2022-08-17T18:29:42.673Z,9.15
2022-08-17T18:32:11.990Z,10.30
2022-08-17T18:34:47.040Z,9.40
2022-08-17T18:37:32.787Z,11.82
2022-08-17T18:40:08.227Z,8.27
2022-08-17T18:42:34.981Z,11.30
2022-08-17T18:45:01.796Z,11.55
2022-08-17T18:47:29.449Z,12.60
2022-08-17T18:49:59.183Z,12.82
2022-08-17T18:52:32.015Z,15.77
2022-08-17T18:55:22.044Z,10.65
2022-08-17T18:57:52.459Z,13.90
2022-08-17T19:00:38.318Z,11.05
2022-08-17T19:03:23.856Z,12.88
2022-08-17T19:05:57.136Z,12.68
2022-08-17T19:08:29.414Z,13.90
2022-08-17T19:11:01.095Z,14.10
2022-08-17T19:13:41.445Z,13.25
2022-08-17T19:16:28.126Z,11.98
2022-08-17T19:19:14.441Z,14.63
2022-08-17T19:21:52.997Z,14.95
2022-08-17T19:24:30.003Z,16.20
2022-08-17T19:27:17.915Z,19.17
2022-08-17T19:29:56.662Z,14.55
2022-08-17T19:32:29.013Z,18.02
2022-08-17T19:34:56.754Z,15.85
2022-08-17T19:37:44.635Z,20.27
2022-08-17T19:40:52.756Z,19.50
2022-08-17T19:43:47.946Z,23.02
2022-08-17T19:46:50.094Z,20.10
2022-08-17T19:49:41.109Z,16.70
2022-08-17T19:52:40.585Z,18.45
2022-08-17T19:55:20.753Z,15.18
2022-08-17T19:58:11.202Z,14.70
2022-08-17T20:00:50.479Z,14.32
2022-08-17T20:03:47.033Z,18.50
2022-08-17T20:06:14.397Z,18.98
2022-08-17T20:08:59.530Z,16.30
2022-08-17T20:11:41.809Z,14.52
2022-08-17T20:14:14.840Z,15.02
2022-08-17T20:16:42.156Z,13.43
2022-08-17T20:19:29.172Z,17.15
2022-08-17T20:22:09.599Z,15.20
2022-08-17T20:24:56.486Z,14.63
2022-08-17T20:27:31.317Z,14.73
2022-08-17T20:30:29.885Z,15.30
2022-08-17T20:32:58.165Z,15.30
2022-08-17T20:35:32.516Z,14.30
2022-08-17T20:38:05.972Z,15.25
2022-08-17T20:40:36.667Z,15.02
2022-08-17T20:43:34.153Z,15.93
2022-08-17T20:48:42.108Z,14.95
2022-08-17T20:51:27.253Z,16.70
2022-08-17T20:53:53.713Z,16.05
2022-08-17T20:56:43.212Z,14.65
2022-08-17T20:59:28.532Z,16.73
2022-08-17T21:02:17.503Z,17.88
2022-08-17T21:04:50.777Z,16.02
2022-08-17T21:07:42.754Z,16.83
2022-08-17T21:10:12.548Z,16.73
2022-08-17T21:12:52.084Z,16.92
2022-08-17T21:15:30.938Z,14.95
2022-08-17T21:18:13.515Z,16.60
2022-08-17T21:20:58.432Z,16.73
2022-08-17T21:23:50.071Z,17.58
2022-08-17T21:26:21.293Z,16.90
2022-08-17T21:29:14.709Z,14.55
2022-08-17T21:32:10.327Z,17.50
2022-08-17T21:34:43.463Z,18.77
2022-08-17T21:37:24.450Z,17.85
2022-08-17T21:39:56.067Z,17.17
2022-08-17T21:42:29.687Z,17.15
2022-08-17T21:45:09.089Z,19.73
2022-08-17T21:47:36.253Z,21.83
2022-08-17T21:50:22.757Z,17.90
2022-08-17T21:52:53.884Z,20.77
2022-08-17T21:55:30.829Z,19.38
2022-08-17T21:58:14.054Z,20.25
2022-08-17T22:00:44.304Z,18.20
2022-08-17T22:03:25.879Z,23.08
2022-08-17T22:05:52.349Z,20.85
2022-08-17T22:08:23.589Z,21.10
2022-08-17T22:10:51.402Z,19.95
2022-08-17T22:13:18.031Z,19.27
2022-08-17T22:15:51.015Z,22.25
2022-08-17T22:18:26.963Z,22.48
2022-08-17T22:21:04.099Z,22.88
2022-08-17T22:23:53.564Z,21.33
2022-08-17T22:26:22.526Z,22.55
2022-08-17T22:28:51.583Z,19.90
2022-08-17T22:31:50.924Z,22.42
2022-08-17T22:34:17.439Z,20.33
2022-08-17T22:36:44.030Z,22.38
2022-08-17T22:39:10.411Z,20.65
2022-08-17T22:41:40.604Z,27.05
2022-08-17T22:44:28.125Z,22.73
2022-08-17T22:47:42.908Z,23.70
2022-08-17T22:50:29.100Z,21.17
2022-08-17T22:53:37.659Z,23.63
2022-08-17T22:56:23.643Z,21.50
2022-08-17T22:59:18.157Z,21.05
2022-08-17T23:02:05.630Z,23.98
2022-08-17T23:04:37.853Z,21.98
2022-08-17T23:07:05.946Z,22.67
2022-08-17T23:09:33.498Z,22.10
2022-08-17T23:12:00.167Z,26.42
2022-08-17T23:14:31.580Z,23.00
2022-08-17T23:17:02.089Z,25.92
2022-08-17T23:19:31.570Z,25.90
2022-08-17T23:21:59.270Z,24.02
2022-08-17T23:24:29.025Z,24.55
2022-08-17T23:26:57.301Z,23.17
2022-08-17T23:29:25.579Z,24.60
2022-08-17T23:31:52.622Z,21.67
2022-08-17T23:34:20.454Z,22.73
2022-08-17T23:36:52.366Z,30.00
2022-08-17T23:39:24.623Z,25.40
2022-08-17T23:44:24.579Z,25.25
2022-08-17T23:46:52.218Z,25.40
2022-08-17T23:49:19.888Z,22.33
2022-08-17T23:51:48.210Z,23.42
2022-08-17T23:54:27.871Z,30.90
2022-08-17T23:56:54.441Z,25.00
2022-08-17T23:59:23.245Z,22.23
